Gobler, Missouri
Current Conditions -  °F | °C
As of 1:49 PM on Thursday 27 Nov 2014 (Local Time) from KHKA Reporting Station
Overcast Overcast  
Wind Chill: 52°   Ceiling: 3000
Heat Index: 52°   Visibility: 10mi
Dew Point: 30°   Wind: 8mph
Humidity: 44%   Direction: 10°N
Pressure: 30.48"   Gusts: NA
Location:  36.16°N, 89.96°W
Report Text: KHKA 271949Z AUTO 01007KT 10SM OVC030 11/M01 A3048 RMK AO2
Loading
Personal Weather Stations






























Interactive Weather Map New forecast layout! Learn more

10-Day Weather Forecast

Advertisements
Track Severe Weather on mobile